sensor_id;sensor_type;location;lat;lon;timestamp;temperature;humidity
36352;DHT22;22382;44.768;17.206;2023-05-10T00:02:20;12.40;99.90
36352;DHT22;22382;44.768;17.206;2023-05-10T00:04:47;12.40;99.90
36352;DHT22;22382;44.768;17.206;2023-05-10T00:07:14;12.40;99.90
36352;DHT22;22382;44.768;17.206;2023-05-10T00:09:43;12.40;99.90
36352;DHT22;22382;44.768;17.206;2023-05-10T00:12:11;12.40;99.90
36352;DHT22;22382;44.768;17.206;2023-05-10T00:14:38;12.40;99.90
36352;DHT22;22382;44.768;17.206;2023-05-10T00:17:05;12.40;99.90
36352;DHT22;22382;44.768;17.206;2023-05-10T00:19:32;12.40;99.90
36352;DHT22;22382;44.768;17.206;2023-05-10T00:22:00;12.40;99.90
36352;DHT22;22382;44.768;17.206;2023-05-10T00:24:27;12.50;99.90
36352;DHT22;22382;44.768;17.206;2023-05-10T00:26:54;12.50;99.90
36352;DHT22;22382;44.768;17.206;2023-05-10T00:29:22;12.50;99.90
36352;DHT22;22382;44.768;17.206;2023-05-10T00:31:49;12.50;99.90
36352;DHT22;22382;44.768;17.206;2023-05-10T00:34:16;12.50;99.90
36352;DHT22;22382;44.768;17.206;2023-05-10T00:36:43;12.40;99.90
36352;DHT22;22382;44.768;17.206;2023-05-10T00:39:10;12.40;99.90
36352;DHT22;22382;44.768;17.206;2023-05-10T00:41:37;12.40;99.90
36352;DHT22;22382;44.768;17.206;2023-05-10T00:44:05;12.40;99.90
36352;DHT22;22382;44.768;17.206;2023-05-10T00:46:32;12.40;99.90
36352;DHT22;22382;44.768;17.206;2023-05-10T00:49:00;12.40;99.90
36352;DHT22;22382;44.768;17.206;2023-05-10T00:51:27;12.40;99.90
36352;DHT22;22382;44.768;17.206;2023-05-10T00:53:55;12.40;99.90
36352;DHT22;22382;44.768;17.206;2023-05-10T00:56:22;12.40;99.90
36352;DHT22;22382;44.768;17.206;2023-05-10T00:58:51;12.40;99.90
36352;DHT22;22382;44.768;17.206;2023-05-10T01:01:19;12.40;99.90
36352;DHT22;22382;44.768;17.206;2023-05-10T01:03:47;12.40;99.90
36352;DHT22;22382;44.768;17.206;2023-05-10T01:06:15;12.40;99.90
36352;DHT22;22382;44.768;17.206;2023-05-10T01:08:42;12.40;99.90
36352;DHT22;22382;44.768;17.206;2023-05-10T01:11:09;12.40;99.90
36352;DHT22;22382;44.768;17.206;2023-05-10T01:13:38;12.40;99.90
36352;DHT22;22382;44.768;17.206;2023-05-10T01:16:06;12.40;99.90
36352;DHT22;22382;44.768;17.206;2023-05-10T01:18:39;12.40;99.90
36352;DHT22;22382;44.768;17.206;2023-05-10T01:21:32;12.40;99.90
36352;DHT22;22382;44.768;17.206;2023-05-10T01:32:47;12.30;99.90
36352;DHT22;22382;44.768;17.206;2023-05-10T01:35:50;12.20;99.90
36352;DHT22;22382;44.768;17.206;2023-05-10T01:41:31;12.20;99.90
36352;DHT22;22382;44.768;17.206;2023-05-10T01:44:39;12.10;99.90
36352;DHT22;22382;44.768;17.206;2023-05-10T01:47:20;12.10;99.90
36352;DHT22;22382;44.768;17.206;2023-05-10T01:49:55;12.10;99.90
36352;DHT22;22382;44.768;17.206;2023-05-10T01:52:27;12.10;99.90
36352;DHT22;22382;44.768;17.206;2023-05-10T01:55:02;12.10;99.90
36352;DHT22;22382;44.768;17.206;2023-05-10T01:57:37;12.10;99.90
36352;DHT22;22382;44.768;17.206;2023-05-10T02:00:07;12.10;99.90
36352;DHT22;22382;44.768;17.206;2023-05-10T02:02:40;12.10;99.90
36352;DHT22;22382;44.768;17.206;2023-05-10T02:05:09;12.10;99.90
36352;DHT22;22382;44.768;17.206;2023-05-10T02:07:37;12.10;99.90
36352;DHT22;22382;44.768;17.206;2023-05-10T02:10:06;12.10;99.90
36352;DHT22;22382;44.768;17.206;2023-05-10T02:12:45;12.10;99.90
36352;DHT22;22382;44.768;17.206;2023-05-10T02:15:20;12.00;99.90
36352;DHT22;22382;44.768;17.206;2023-05-10T02:17:48;12.00;99.90
36352;DHT22;22382;44.768;17.206;2023-05-10T02:20:18;12.00;99.90
36352;DHT22;22382;44.768;17.206;2023-05-10T02:22:48;12.00;99.90
36352;DHT22;22382;44.768;17.206;2023-05-10T02:25:17;12.00;99.90
36352;DHT22;22382;44.768;17.206;2023-05-10T02:27:46;11.90;99.90
36352;DHT22;22382;44.768;17.206;2023-05-10T02:30:15;11.90;99.90
36352;DHT22;22382;44.768;17.206;2023-05-10T02:32:44;11.90;99.90
36352;DHT22;22382;44.768;17.206;2023-05-10T02:35:12;11.80;99.90
36352;DHT22;22382;44.768;17.206;2023-05-10T02:37:39;11.80;99.90
36352;DHT22;22382;44.768;17.206;2023-05-10T02:40:08;11.80;99.90
36352;DHT22;22382;44.768;17.206;2023-05-10T02:42:38;11.80;99.90
36352;DHT22;22382;44.768;17.206;2023-05-10T02:45:12;11.70;99.90
36352;DHT22;22382;44.768;17.206;2023-05-10T02:47:40;11.70;99.90
36352;DHT22;22382;44.768;17.206;2023-05-10T02:50:08;11.70;99.90
36352;DHT22;22382;44.768;17.206;2023-05-10T02:52:47;11.70;99.90
36352;DHT22;22382;44.768;17.206;2023-05-10T02:55:21;11.70;99.90
36352;DHT22;22382;44.768;17.206;2023-05-10T02:58:00;11.70;99.90
36352;DHT22;22382;44.768;17.206;2023-05-10T03:00:27;11.70;99.90
36352;DHT22;22382;44.768;17.206;2023-05-10T03:02:55;11.70;99.90
36352;DHT22;22382;44.768;17.206;2023-05-10T03:05:22;11.70;99.90
36352;DHT22;22382;44.768;17.206;2023-05-10T03:07:50;11.70;99.90
36352;DHT22;22382;44.768;17.206;2023-05-10T03:10:18;11.70;99.90
36352;DHT22;22382;44.768;17.206;2023-05-10T03:13:12;11.70;99.90
36352;DHT22;22382;44.768;17.206;2023-05-10T03:16:08;11.70;99.90
36352;DHT22;22382;44.768;17.206;2023-05-10T03:19:06;11.70;99.90
36352;DHT22;22382;44.768;17.206;2023-05-10T03:21:30;11.70;99.90
36352;DHT22;22382;44.768;17.206;2023-05-10T03:24:07;11.70;99.90
36352;DHT22;22382;44.768;17.206;2023-05-10T03:26:35;11.70;99.90
36352;DHT22;22382;44.768;17.206;2023-05-10T03:29:04;11.70;99.90
36352;DHT22;22382;44.768;17.206;2023-05-10T03:31:32;11.60;99.90
36352;DHT22;22382;44.768;17.206;2023-05-10T03:33:59;11.70;99.90
36352;DHT22;22382;44.768;17.206;2023-05-10T03:36:28;11.60;99.90
36352;DHT22;22382;44.768;17.206;2023-05-10T03:38:55;11.70;99.90
36352;DHT22;22382;44.768;17.206;2023-05-10T03:41:22;11.60;99.90
36352;DHT22;22382;44.768;17.206;2023-05-10T03:43:49;11.60;99.90
36352;DHT22;22382;44.768;17.206;2023-05-10T03:46:16;11.70;99.90
36352;DHT22;22382;44.768;17.206;2023-05-10T03:48:44;11.60;99.90
36352;DHT22;22382;44.768;17.206;2023-05-10T03:51:11;11.60;99.90
36352;DHT22;22382;44.768;17.206;2023-05-10T03:53:38;11.70;99.90
36352;DHT22;22382;44.768;17.206;2023-05-10T03:56:05;11.60;99.90
36352;DHT22;22382;44.768;17.206;2023-05-10T03:58:32;11.60;99.90
36352;DHT22;22382;44.768;17.206;2023-05-10T04:00:59;11.60;99.90
36352;DHT22;22382;44.768;17.206;2023-05-10T04:03:26;11.50;99.90
36352;DHT22;22382;44.768;17.206;2023-05-10T04:06:01;11.50;99.90
36352;DHT22;22382;44.768;17.206;2023-05-10T04:08:28;11.60;99.90
36352;DHT22;22382;44.768;17.206;2023-05-10T04:11:08;11.60;99.90
36352;DHT22;22382;44.768;17.206;2023-05-10T04:13:35;11.60;99.90
36352;DHT22;22382;44.768;17.206;2023-05-10T04:16:03;11.70;99.90
36352;DHT22;22382;44.768;17.206;2023-05-10T04:18:30;11.70;99.90
36352;DHT22;22382;44.768;17.206;2023-05-10T04:20:58;11.70;99.90
36352;DHT22;22382;44.768;17.206;2023-05-10T04:23:27;11.80;99.90
36352;DHT22;22382;44.768;17.206;2023-05-10T04:26:01;11.80;99.90
36352;DHT22;22382;44.768;17.206;2023-05-10T04:28:28;11.80;99.90
36352;DHT22;22382;44.768;17.206;2023-05-10T04:31:06;11.80;99.90
36352;DHT22;22382;44.768;17.206;2023-05-10T04:33:34;11.80;99.90
36352;DHT22;22382;44.768;17.206;2023-05-10T04:36:03;11.80;99.90
36352;DHT22;22382;44.768;17.206;2023-05-10T04:38:30;11.90;99.90
36352;DHT22;22382;44.768;17.206;2023-05-10T04:41:05;11.90;99.90
36352;DHT22;22382;44.768;17.206;2023-05-10T04:43:33;11.90;99.90
36352;DHT22;22382;44.768;17.206;2023-05-10T04:46:00;11.90;99.90
36352;DHT22;22382;44.768;17.206;2023-05-10T04:48:27;11.70;99.90
36352;DHT22;22382;44.768;17.206;2023-05-10T04:50:54;11.80;99.90
36352;DHT22;22382;44.768;17.206;2023-05-10T04:53:22;11.80;99.90
36352;DHT22;22382;44.768;17.206;2023-05-10T04:55:49;11.80;99.90
36352;DHT22;22382;44.768;17.206;2023-05-10T04:58:16;12.00;99.90
36352;DHT22;22382;44.768;17.206;2023-05-10T05:00:43;12.10;99.90
36352;DHT22;22382;44.768;17.206;2023-05-10T05:03:11;12.10;99.90
36352;DHT22;22382;44.768;17.206;2023-05-10T05:05:38;12.20;99.90
36352;DHT22;22382;44.768;17.206;2023-05-10T05:08:05;12.30;99.90
36352;DHT22;22382;44.768;17.206;2023-05-10T05:10:32;12.40;99.90
36352;DHT22;22382;44.768;17.206;2023-05-10T05:12:59;12.50;99.90
36352;DHT22;22382;44.768;17.206;2023-05-10T05:15:27;12.60;99.90
36352;DHT22;22382;44.768;17.206;2023-05-10T05:17:54;12.70;99.90
36352;DHT22;22382;44.768;17.206;2023-05-10T05:20:22;12.70;99.90
36352;DHT22;22382;44.768;17.206;2023-05-10T05:22:49;12.70;99.90
36352;DHT22;22382;44.768;17.206;2023-05-10T05:25:16;12.80;99.90
36352;DHT22;22382;44.768;17.206;2023-05-10T05:27:44;12.80;99.90
36352;DHT22;22382;44.768;17.206;2023-05-10T05:30:11;13.00;99.90
36352;DHT22;22382;44.768;17.206;2023-05-10T05:32:39;13.10;99.90
36352;DHT22;22382;44.768;17.206;2023-05-10T05:35:07;13.20;99.90
36352;DHT22;22382;44.768;17.206;2023-05-10T05:37:34;13.20;99.90
36352;DHT22;22382;44.768;17.206;2023-05-10T05:40:02;13.30;99.90
36352;DHT22;22382;44.768;17.206;2023-05-10T05:42:31;13.50;99.90
36352;DHT22;22382;44.768;17.206;2023-05-10T05:44:58;13.50;99.90
36352;DHT22;22382;44.768;17.206;2023-05-10T05:47:25;13.40;99.90
36352;DHT22;22382;44.768;17.206;2023-05-10T05:49:53;13.50;99.90
36352;DHT22;22382;44.768;17.206;2023-05-10T05:52:20;13.50;99.90
36352;DHT22;22382;44.768;17.206;2023-05-10T05:54:48;13.60;99.90
36352;DHT22;22382;44.768;17.206;2023-05-10T05:57:15;13.70;99.90
36352;DHT22;22382;44.768;17.206;2023-05-10T05:59:42;13.80;99.90
36352;DHT22;22382;44.768;17.206;2023-05-10T06:02:10;13.90;99.90
36352;DHT22;22382;44.768;17.206;2023-05-10T06:04:38;14.00;99.90
36352;DHT22;22382;44.768;17.206;2023-05-10T06:07:08;14.10;99.90
36352;DHT22;22382;44.768;17.206;2023-05-10T06:09:35;14.20;99.90
36352;DHT22;22382;44.768;17.206;2023-05-10T06:12:02;14.50;99.90
36352;DHT22;22382;44.768;17.206;2023-05-10T06:14:30;14.50;99.90
36352;DHT22;22382;44.768;17.206;2023-05-10T06:16:57;14.60;99.90
36352;DHT22;22382;44.768;17.206;2023-05-10T06:19:26;14.70;99.90
36352;DHT22;22382;44.768;17.206;2023-05-10T06:21:54;14.80;99.90
36352;DHT22;22382;44.768;17.206;2023-05-10T06:24:21;14.90;99.90
36352;DHT22;22382;44.768;17.206;2023-05-10T06:26:48;14.90;99.90
36352;DHT22;22382;44.768;17.206;2023-05-10T06:29:16;15.00;99.90
36352;DHT22;22382;44.768;17.206;2023-05-10T06:31:44;14.90;99.90
36352;DHT22;22382;44.768;17.206;2023-05-10T06:34:11;14.40;99.90
36352;DHT22;22382;44.768;17.206;2023-05-10T06:36:39;14.40;99.90
36352;DHT22;22382;44.768;17.206;2023-05-10T06:39:06;14.60;99.90
36352;DHT22;22382;44.768;17.206;2023-05-10T06:41:33;14.00;99.90
36352;DHT22;22382;44.768;17.206;2023-05-10T06:44:01;14.10;99.90
36352;DHT22;22382;44.768;17.206;2023-05-10T06:46:28;14.30;99.90
36352;DHT22;22382;44.768;17.206;2023-05-10T06:48:55;14.70;99.90
36352;DHT22;22382;44.768;17.206;2023-05-10T06:51:23;14.90;99.90
36352;DHT22;22382;44.768;17.206;2023-05-10T06:53:50;15.00;99.90
36352;DHT22;22382;44.768;17.206;2023-05-10T06:56:17;15.20;99.90
36352;DHT22;22382;44.768;17.206;2023-05-10T06:58:44;15.60;99.90
36352;DHT22;22382;44.768;17.206;2023-05-10T07:01:11;15.90;97.30
36352;DHT22;22382;44.768;17.206;2023-05-10T07:03:38;16.00;96.90
36352;DHT22;22382;44.768;17.206;2023-05-10T07:06:06;16.40;94.30
36352;DHT22;22382;44.768;17.206;2023-05-10T07:08:44;17.10;92.50
36352;DHT22;22382;44.768;17.206;2023-05-10T07:11:11;17.40;90.00
36352;DHT22;22382;44.768;17.206;2023-05-10T07:13:39;17.90;84.40
36352;DHT22;22382;44.768;17.206;2023-05-10T07:16:08;17.30;86.50
36352;DHT22;22382;44.768;17.206;2023-05-10T07:18:35;17.30;88.70
36352;DHT22;22382;44.768;17.206;2023-05-10T07:21:03;17.60;86.60
36352;DHT22;22382;44.768;17.206;2023-05-10T07:23:30;17.90;85.50
36352;DHT22;22382;44.768;17.206;2023-05-10T07:25:57;18.10;82.60
36352;DHT22;22382;44.768;17.206;2023-05-10T07:28:25;18.50;81.10
36352;DHT22;22382;44.768;17.206;2023-05-10T07:30:52;18.40;80.90
36352;DHT22;22382;44.768;17.206;2023-05-10T07:33:19;18.20;81.00
36352;DHT22;22382;44.768;17.206;2023-05-10T07:35:46;18.20;80.90
36352;DHT22;22382;44.768;17.206;2023-05-10T07:38:13;18.20;81.50
36352;DHT22;22382;44.768;17.206;2023-05-10T07:40:41;18.40;80.40
36352;DHT22;22382;44.768;17.206;2023-05-10T07:43:08;18.40;79.50
36352;DHT22;22382;44.768;17.206;2023-05-10T07:45:35;17.80;81.00
36352;DHT22;22382;44.768;17.206;2023-05-10T07:48:02;17.40;83.30
36352;DHT22;22382;44.768;17.206;2023-05-10T07:50:30;17.50;82.30
36352;DHT22;22382;44.768;17.206;2023-05-10T07:52:57;18.00;81.90
36352;DHT22;22382;44.768;17.206;2023-05-10T07:55:24;18.30;80.40
36352;DHT22;22382;44.768;17.206;2023-05-10T07:57:51;18.30;79.60
36352;DHT22;22382;44.768;17.206;2023-05-10T08:00:19;18.10;82.10
36352;DHT22;22382;44.768;17.206;2023-05-10T08:02:47;18.00;82.20
36352;DHT22;22382;44.768;17.206;2023-05-10T08:05:15;17.70;83.70
36352;DHT22;22382;44.768;17.206;2023-05-10T08:07:42;17.90;83.70
36352;DHT22;22382;44.768;17.206;2023-05-10T08:10:10;18.20;82.10
36352;DHT22;22382;44.768;17.206;2023-05-10T08:12:40;17.90;82.20
36352;DHT22;22382;44.768;17.206;2023-05-10T08:15:08;18.50;81.60
36352;DHT22;22382;44.768;17.206;2023-05-10T08:17:35;18.90;79.60
36352;DHT22;22382;44.768;17.206;2023-05-10T08:20:03;18.90;79.10
36352;DHT22;22382;44.768;17.206;2023-05-10T08:22:30;18.60;78.70
36352;DHT22;22382;44.768;17.206;2023-05-10T08:24:57;18.20;79.90
36352;DHT22;22382;44.768;17.206;2023-05-10T08:27:25;18.10;81.80
36352;DHT22;22382;44.768;17.206;2023-05-10T08:29:52;17.60;84.70
36352;DHT22;22382;44.768;17.206;2023-05-10T08:32:19;17.80;84.20
36352;DHT22;22382;44.768;17.206;2023-05-10T08:34:46;17.90;83.70
36352;DHT22;22382;44.768;17.206;2023-05-10T08:37:13;18.30;84.80
36352;DHT22;22382;44.768;17.206;2023-05-10T08:39:41;18.00;82.60
36352;DHT22;22382;44.768;17.206;2023-05-10T08:42:09;18.00;83.80
36352;DHT22;22382;44.768;17.206;2023-05-10T08:44:36;18.40;83.70
36352;DHT22;22382;44.768;17.206;2023-05-10T08:47:07;18.70;80.50
36352;DHT22;22382;44.768;17.206;2023-05-10T08:49:37;17.80;83.40
36352;DHT22;22382;44.768;17.206;2023-05-10T08:52:05;17.70;84.50
36352;DHT22;22382;44.768;17.206;2023-05-10T08:54:34;17.10;85.90
36352;DHT22;22382;44.768;17.206;2023-05-10T08:57:01;17.20;87.90
36352;DHT22;22382;44.768;17.206;2023-05-10T08:59:29;17.60;88.70
36352;DHT22;22382;44.768;17.206;2023-05-10T09:01:58;18.40;83.80
36352;DHT22;22382;44.768;17.206;2023-05-10T09:04:26;19.00;81.50
36352;DHT22;22382;44.768;17.206;2023-05-10T09:06:53;19.00;81.90
36352;DHT22;22382;44.768;17.206;2023-05-10T09:09:21;19.10;79.30
36352;DHT22;22382;44.768;17.206;2023-05-10T09:11:49;19.10;79.50
36352;DHT22;22382;44.768;17.206;2023-05-10T09:14:16;19.30;80.60
36352;DHT22;22382;44.768;17.206;2023-05-10T09:16:44;19.70;80.00
36352;DHT22;22382;44.768;17.206;2023-05-10T09:19:11;19.70;76.40
36352;DHT22;22382;44.768;17.206;2023-05-10T09:21:39;18.70;79.60
36352;DHT22;22382;44.768;17.206;2023-05-10T09:24:08;18.40;81.70
36352;DHT22;22382;44.768;17.206;2023-05-10T09:26:39;18.10;84.10
36352;DHT22;22382;44.768;17.206;2023-05-10T09:29:12;18.40;83.60
36352;DHT22;22382;44.768;17.206;2023-05-10T09:34:16;18.20;83.10
36352;DHT22;22382;44.768;17.206;2023-05-10T09:36:54;17.70;84.90
36352;DHT22;22382;44.768;17.206;2023-05-10T09:39:30;18.00;84.10
36352;DHT22;22382;44.768;17.206;2023-05-10T09:42:01;18.10;85.80
36352;DHT22;22382;44.768;17.206;2023-05-10T09:44:32;18.70;82.70
36352;DHT22;22382;44.768;17.206;2023-05-10T09:47:03;18.60;82.90
36352;DHT22;22382;44.768;17.206;2023-05-10T09:49:31;17.50;85.70
36352;DHT22;22382;44.768;17.206;2023-05-10T09:52:02;17.70;89.60
36352;DHT22;22382;44.768;17.206;2023-05-10T09:54:30;18.10;87.10
36352;DHT22;22382;44.768;17.206;2023-05-10T09:56:59;18.40;84.20
36352;DHT22;22382;44.768;17.206;2023-05-10T09:59:27;18.40;84.60
36352;DHT22;22382;44.768;17.206;2023-05-10T10:01:59;18.10;85.70
36352;DHT22;22382;44.768;17.206;2023-05-10T10:04:27;18.20;86.60
36352;DHT22;22382;44.768;17.206;2023-05-10T10:07:03;18.60;84.70
36352;DHT22;22382;44.768;17.206;2023-05-10T10:09:31;18.40;84.20
36352;DHT22;22382;44.768;17.206;2023-05-10T10:12:00;18.20;85.90
36352;DHT22;22382;44.768;17.206;2023-05-10T10:14:28;18.20;87.00
36352;DHT22;22382;44.768;17.206;2023-05-10T10:16:55;18.50;86.20
36352;DHT22;22382;44.768;17.206;2023-05-10T10:19:35;18.10;84.70
36352;DHT22;22382;44.768;17.206;2023-05-10T10:22:03;18.40;85.00
36352;DHT22;22382;44.768;17.206;2023-05-10T10:24:31;17.80;86.80
36352;DHT22;22382;44.768;17.206;2023-05-10T10:30:39;18.70;85.30
36352;DHT22;22382;44.768;17.206;2023-05-10T10:36:04;18.50;83.80
36352;DHT22;22382;44.768;17.206;2023-05-10T10:38:55;18.30;85.40
36352;DHT22;22382;44.768;17.206;2023-05-10T10:41:33;18.10;85.80
36352;DHT22;22382;44.768;17.206;2023-05-10T10:47:21;18.70;83.70
36352;DHT22;22382;44.768;17.206;2023-05-10T10:50:05;18.80;83.30
36352;DHT22;22382;44.768;17.206;2023-05-10T10:52:35;18.20;83.90
36352;DHT22;22382;44.768;17.206;2023-05-10T10:57:52;18.40;84.90
36352;DHT22;22382;44.768;17.206;2023-05-10T11:00:46;18.40;84.10
36352;DHT22;22382;44.768;17.206;2023-05-10T11:03:15;18.00;85.30
36352;DHT22;22382;44.768;17.206;2023-05-10T11:05:49;17.80;86.90
36352;DHT22;22382;44.768;17.206;2023-05-10T11:08:27;17.90;86.30
36352;DHT22;22382;44.768;17.206;2023-05-10T11:16:22;17.90;85.90
36352;DHT22;22382;44.768;17.206;2023-05-10T11:19:05;17.80;88.80
36352;DHT22;22382;44.768;17.206;2023-05-10T11:21:44;18.00;87.20
36352;DHT22;22382;44.768;17.206;2023-05-10T11:24:17;17.70;85.50
36352;DHT22;22382;44.768;17.206;2023-05-10T11:26:45;17.80;86.80
36352;DHT22;22382;44.768;17.206;2023-05-10T11:29:13;17.50;88.10
36352;DHT22;22382;44.768;17.206;2023-05-10T11:31:44;17.30;89.30
36352;DHT22;22382;44.768;17.206;2023-05-10T11:34:24;17.30;89.60
36352;DHT22;22382;44.768;17.206;2023-05-10T11:36:53;17.30;90.10
36352;DHT22;22382;44.768;17.206;2023-05-10T11:39:27;17.40;90.30
36352;DHT22;22382;44.768;17.206;2023-05-10T11:41:55;17.40;90.30
36352;DHT22;22382;44.768;17.206;2023-05-10T11:44:24;17.50;90.20
36352;DHT22;22382;44.768;17.206;2023-05-10T11:47:01;17.60;90.00
36352;DHT22;22382;44.768;17.206;2023-05-10T11:49:29;17.50;89.20
36352;DHT22;22382;44.768;17.206;2023-05-10T11:52:06;17.50;90.00
36352;DHT22;22382;44.768;17.206;2023-05-10T11:54:34;17.50;90.50
36352;DHT22;22382;44.768;17.206;2023-05-10T11:57:02;17.30;90.30
36352;DHT22;22382;44.768;17.206;2023-05-10T11:59:30;17.30;90.60
36352;DHT22;22382;44.768;17.206;2023-05-10T12:01:57;17.40;90.60
36352;DHT22;22382;44.768;17.206;2023-05-10T12:04:25;17.40;91.00
36352;DHT22;22382;44.768;17.206;2023-05-10T12:06:53;17.30;91.20
36352;DHT22;22382;44.768;17.206;2023-05-10T12:09:20;17.40;91.50
36352;DHT22;22382;44.768;17.206;2023-05-10T12:12:07;17.50;91.60
36352;DHT22;22382;44.768;17.206;2023-05-10T12:14:35;17.40;93.00
36352;DHT22;22382;44.768;17.206;2023-05-10T12:17:02;17.40;94.20
36352;DHT22;22382;44.768;17.206;2023-05-10T12:19:37;17.50;97.80
36352;DHT22;22382;44.768;17.206;2023-05-10T12:22:05;17.60;99.90
36352;DHT22;22382;44.768;17.206;2023-05-10T12:24:39;17.60;99.90
36352;DHT22;22382;44.768;17.206;2023-05-10T12:27:09;17.70;99.90
36352;DHT22;22382;44.768;17.206;2023-05-10T12:29:37;17.80;99.90
36352;DHT22;22382;44.768;17.206;2023-05-10T12:32:10;17.80;99.90
36352;DHT22;22382;44.768;17.206;2023-05-10T12:34:38;18.00;99.90
36352;DHT22;22382;44.768;17.206;2023-05-10T12:37:05;18.10;99.90
36352;DHT22;22382;44.768;17.206;2023-05-10T12:39:44;18.10;99.90
36352;DHT22;22382;44.768;17.206;2023-05-10T12:42:12;18.20;99.90
36352;DHT22;22382;44.768;17.206;2023-05-10T12:44:40;18.40;99.90
36352;DHT22;22382;44.768;17.206;2023-05-10T12:47:07;18.50;99.90
36352;DHT22;22382;44.768;17.206;2023-05-10T12:49:34;18.50;99.90
36352;DHT22;22382;44.768;17.206;2023-05-10T12:52:01;18.70;99.90
36352;DHT22;22382;44.768;17.206;2023-05-10T12:54:29;18.70;98.40
36352;DHT22;22382;44.768;17.206;2023-05-10T12:56:56;18.70;99.90
36352;DHT22;22382;44.768;17.206;2023-05-10T12:59:23;18.70;99.10
36352;DHT22;22382;44.768;17.206;2023-05-10T13:01:51;18.70;99.00
36352;DHT22;22382;44.768;17.206;2023-05-10T13:04:18;18.60;99.30
36352;DHT22;22382;44.768;17.206;2023-05-10T13:06:46;18.70;98.60
36352;DHT22;22382;44.768;17.206;2023-05-10T13:09:13;18.40;99.90
36352;DHT22;22382;44.768;17.206;2023-05-10T13:11:40;18.50;99.90
36352;DHT22;22382;44.768;17.206;2023-05-10T13:14:07;18.70;99.90
36352;DHT22;22382;44.768;17.206;2023-05-10T13:16:34;18.90;99.90
36352;DHT22;22382;44.768;17.206;2023-05-10T13:19:02;19.00;99.20
36352;DHT22;22382;44.768;17.206;2023-05-10T13:21:29;19.10;97.60
36352;DHT22;22382;44.768;17.206;2023-05-10T13:23:57;19.20;98.90
36352;DHT22;22382;44.768;17.206;2023-05-10T13:26:24;19.30;99.50
36352;DHT22;22382;44.768;17.206;2023-05-10T13:28:52;19.10;98.10
36352;DHT22;22382;44.768;17.206;2023-05-10T13:31:19;19.20;98.50
36352;DHT22;22382;44.768;17.206;2023-05-10T13:33:47;19.00;98.10
36352;DHT22;22382;44.768;17.206;2023-05-10T13:36:14;18.90;99.60
36352;DHT22;22382;44.768;17.206;2023-05-10T13:38:41;18.90;98.90
36352;DHT22;22382;44.768;17.206;2023-05-10T13:41:09;18.80;99.80
36352;DHT22;22382;44.768;17.206;2023-05-10T13:43:36;18.70;99.90
36352;DHT22;22382;44.768;17.206;2023-05-10T13:46:04;18.50;99.90
36352;DHT22;22382;44.768;17.206;2023-05-10T13:48:31;18.60;99.90
36352;DHT22;22382;44.768;17.206;2023-05-10T13:50:59;18.80;99.90
36352;DHT22;22382;44.768;17.206;2023-05-10T13:53:27;18.80;99.80
36352;DHT22;22382;44.768;17.206;2023-05-10T13:55:54;18.90;98.20
36352;DHT22;22382;44.768;17.206;2023-05-10T13:58:21;18.90;97.90
36352;DHT22;22382;44.768;17.206;2023-05-10T14:00:48;19.00;97.60
36352;DHT22;22382;44.768;17.206;2023-05-10T14:03:16;19.00;97.20
36352;DHT22;22382;44.768;17.206;2023-05-10T14:05:44;19.20;97.20
36352;DHT22;22382;44.768;17.206;2023-05-10T14:08:12;19.20;96.40
36352;DHT22;22382;44.768;17.206;2023-05-10T14:10:40;19.20;95.70
36352;DHT22;22382;44.768;17.206;2023-05-10T14:13:07;19.30;94.70
36352;DHT22;22382;44.768;17.206;2023-05-10T14:15:35;19.20;95.40
36352;DHT22;22382;44.768;17.206;2023-05-10T14:18:02;19.20;96.40
36352;DHT22;22382;44.768;17.206;2023-05-10T14:20:29;19.30;97.00
36352;DHT22;22382;44.768;17.206;2023-05-10T14:22:56;19.50;96.90
36352;DHT22;22382;44.768;17.206;2023-05-10T14:25:24;19.20;98.90
36352;DHT22;22382;44.768;17.206;2023-05-10T14:27:51;19.00;99.90
36352;DHT22;22382;44.768;17.206;2023-05-10T14:30:24;19.10;99.90
36352;DHT22;22382;44.768;17.206;2023-05-10T14:32:52;18.90;99.90
36352;DHT22;22382;44.768;17.206;2023-05-10T14:35:20;18.70;99.90
36352;DHT22;22382;44.768;17.206;2023-05-10T14:37:48;19.00;99.90
36352;DHT22;22382;44.768;17.206;2023-05-10T14:40:15;19.00;99.90
36352;DHT22;22382;44.768;17.206;2023-05-10T14:42:44;19.20;99.90
36352;DHT22;22382;44.768;17.206;2023-05-10T14:45:12;19.00;99.90
36352;DHT22;22382;44.768;17.206;2023-05-10T14:47:39;18.80;99.90
36352;DHT22;22382;44.768;17.206;2023-05-10T14:50:07;18.60;99.90
36352;DHT22;22382;44.768;17.206;2023-05-10T14:52:34;18.70;99.90
36352;DHT22;22382;44.768;17.206;2023-05-10T14:55:02;18.90;99.90
36352;DHT22;22382;44.768;17.206;2023-05-10T14:57:29;19.00;99.90
36352;DHT22;22382;44.768;17.206;2023-05-10T14:59:57;19.00;99.90
36352;DHT22;22382;44.768;17.206;2023-05-10T15:02:24;19.10;99.90
36352;DHT22;22382;44.768;17.206;2023-05-10T15:04:52;19.30;99.30
36352;DHT22;22382;44.768;17.206;2023-05-10T15:07:20;19.40;98.60
36352;DHT22;22382;44.768;17.206;2023-05-10T15:09:47;19.40;97.60
36352;DHT22;22382;44.768;17.206;2023-05-10T15:12:15;19.40;97.30
36352;DHT22;22382;44.768;17.206;2023-05-10T15:14:42;19.30;97.20
36352;DHT22;22382;44.768;17.206;2023-05-10T15:17:09;19.20;99.20
36352;DHT22;22382;44.768;17.206;2023-05-10T15:19:37;19.10;99.90
36352;DHT22;22382;44.768;17.206;2023-05-10T15:22:04;19.00;99.90
36352;DHT22;22382;44.768;17.206;2023-05-10T15:24:32;18.90;99.40
36352;DHT22;22382;44.768;17.206;2023-05-10T15:26:59;18.90;99.90
36352;DHT22;22382;44.768;17.206;2023-05-10T15:29:28;18.80;99.90
36352;DHT22;22382;44.768;17.206;2023-05-10T15:32:02;18.60;99.90
36352;DHT22;22382;44.768;17.206;2023-05-10T15:34:30;18.60;99.90
36352;DHT22;22382;44.768;17.206;2023-05-10T15:37:00;18.60;99.90
36352;DHT22;22382;44.768;17.206;2023-05-10T15:39:27;18.70;99.90
36352;DHT22;22382;44.768;17.206;2023-05-10T15:41:55;18.70;99.90
36352;DHT22;22382;44.768;17.206;2023-05-10T15:44:22;18.20;99.90
36352;DHT22;22382;44.768;17.206;2023-05-10T15:46:49;18.20;99.90
36352;DHT22;22382;44.768;17.206;2023-05-10T15:49:16;17.90;99.90
36352;DHT22;22382;44.768;17.206;2023-05-10T15:51:44;17.80;99.90
36352;DHT22;22382;44.768;17.206;2023-05-10T15:54:11;17.90;99.90
36352;DHT22;22382;44.768;17.206;2023-05-10T15:56:40;18.00;99.90
36352;DHT22;22382;44.768;17.206;2023-05-10T15:59:10;18.00;99.90
36352;DHT22;22382;44.768;17.206;2023-05-10T16:01:38;18.10;99.90